Queen Of Burnaby — VCVV — position and weather

sailwx.info

Track history (hours):
 
Tides and Currents Weather Stations Pressure Air Temp Water Temp Dewpoint Dewpoint Depression Visibility Wind Speed Wind Dir Waves Ship Positions

Queen Of Burnaby

Last reported at 2017-Jan-17 20:27 UTC. Time now 2017-Jan-17 21:24 UTC.
Position N 49°44' W 124°55'.

Length 130 m; draft 4 m.

MMSI: 316001246.

Date/timePositionNaut miles runAvg speedWind from/ knotsBaromVisibWave heightAir tempDewpointWater temp
2017-Jan-17 20:27N 49°44' W 124°55'0 0.0
2017-Jan-17 19:24N 49°44' W 124°55'0 0.0
2017-Jan-17 18:33N 49°44' W 124°55'0 0.0
2017-Jan-17 17:27N 49°44' W 124°55'0 0.0
2017-Jan-17 16:33N 49°44' W 124°55'0 0.0
2017-Jan-17 15:30N 49°44' W 124°55'0 0.0
2017-Jan-17 14:30N 49°44' W 124°55'0 0.0
2017-Jan-17 13:30N 49°44' W 124°55'0 0.0
2017-Jan-17 12:30N 49°44' W 124°55'0 0.0
2017-Jan-17 11:33N 49°44' W 124°55'0 0.0
2017-Jan-17 10:33N 49°44' W 124°55'0 0.0
2017-Jan-17 09:30N 49°44' W 124°55'0 0.0
2017-Jan-17 07:30N 49°44' W 124°55'0 0.0
2017-Jan-17 06:33N 49°44' W 124°55'9 9.4
2017-Jan-17 05:33N 49°44' W 124°41'9 8.6
2017-Jan-17 04:33N 49°50' W 124°32'1413.8
2017-Jan-17 03:33N 49°45' W 124°52'1 1.1
2017-Jan-17 02:33N 49°44' W 124°51'1010.0
2017-Jan-17 01:33N 49°49' W 124°37'3 3.0
2017-Jan-17 00:33N 49°50' W 124°33'1212.4
2017-Jan-16 23:33N 49°46' W 124°51'3 2.8
2017-Jan-16 22:27N 49°44' W 124°55'0 0.0
2017-Jan-16 21:33N 49°44' W 124°55'7 7.2
2017-Jan-16 20:33N 49°47' W 124°45'9 9.1
2017-Jan-16 19:33N 49°50' W 124°32'10 9.9
2017-Jan-16 18:33N 49°47' W 124°46'6 6.3
2017-Jan-16 17:33N 49°44' W 124°55'1111.5
2017-Jan-16 16:33N 49°48' W 124°39'3 3.5
2017-Jan-16 15:33N 49°50' W 124°34'1413.6
2017-Jan-16 14:33N 49°45' W 124°54'1 1.3
2017-Jan-16 13:32N 49°44' W 124°55'0 0.0
2017-Jan-16 12:32N 49°44' W 124°55'0 0.0
2017-Jan-16 11:32N 49°44' W 124°55'0 0.0
2017-Jan-16 10:32N 49°44' W 124°55'0 0.0
2017-Jan-16 09:32N 49°44' W 124°55'0 0.0
2017-Jan-16 08:32N 49°44' W 124°55'0 0.0
2017-Jan-16 07:32N 49°44' W 124°55'0 0.0
2017-Jan-16 06:32N 49°44' W 124°55'6 6.2
2017-Jan-16 05:33N 49°47' W 124°47'1010.2
2017-Jan-16 04:33N 49°50' W 124°32'1413.8
2017-Jan-16 03:33N 49°45' W 124°52'2 2.5
2017-Jan-16 02:33N 49°44' W 124°55'1212.3
2017-Jan-16 01:33N 49°49' W 124°38'4 3.6
2017-Jan-16 00:33N 49°50' W 124°32'1312.8
2017-Jan-15 23:33N 49°46' W 124°51'3 3.0
2017-Jan-15 22:33N 49°44' W 124°55'0 0.0
2017-Jan-15 21:28N 49°44' W 124°55'8 8.8
2017-Jan-15 20:33N 49°47' W 124°44'8 8.1
2017-Jan-15 19:33N 49°50' W 124°32'10 9.7
2017-Jan-15 18:33N 49°47' W 124°46'7 6.5
2017-Jan-15 17:33N 49°44' W 124°55'1110.8
2017-Jan-15 16:33N 49°48' W 124°40'5 4.6
2017-Jan-15 15:33N 49°50' W 124°34'1313.5
2017-Jan-15 14:34N 49°45' W 124°53'2 1.6
2017-Jan-15 13:24N 49°44' W 124°55'0 0.0
2017-Jan-15 10:12N 49°44' W 124°55'0 0.0
2017-Jan-15 08:15N 49°44' W 124°55'0 0.0
2017-Jan-15 07:33N 49°44' W 124°55'0 0.0
2017-Jan-15 06:21N 49°44' W 124°55'5 6.4
2017-Jan-15 05:33N 49°46' W 124°48'1111.2
2017-Jan-15 04:33N 49°50' W 124°32'9 9.2
2017-Jan-15 03:33N 49°47' W 124°45'7 7.1
2017-Jan-15 02:33N 49°44' W 124°55'0 0.0
2017-Jan-15 01:33N 49°44' W 124°55'0 0.0
2017-Jan-15 00:33N 49°44' W 124°55'1 1.4
2017-Jan-14 23:34N 49°45' W 124°53'1 1.3
2017-Jan-14 22:32N 49°44' W 124°55'0 0.0
2017-Jan-14 21:32N 49°44' W 124°55'8 8.1
2017-Jan-14 20:33N 49°47' W 124°44'8 8.3
2017-Jan-14 19:33N 49°50' W 124°32'1010.3
2017-Jan-14 18:33N 49°46' W 124°47'6 5.9
2017-Jan-14 17:33N 49°44' W 124°55'1110.9
2017-Jan-14 16:33N 49°48' W 124°40'4 3.8
2017-Jan-14 15:34N 49°50' W 124°35'1413.7
2017-Jan-14 14:33N 49°45' W 124°54'1 0.9
2017-Jan-14 13:32N 49°44' W 124°55'0 0.0
2017-Jan-14 12:26N 49°44' W 124°55'0 0.0
2017-Jan-14 11:29N 49°44' W 124°55'0 0.0
2017-Jan-14 10:32N 49°44' W 124°55'0 0.0
2017-Jan-14 09:29N 49°44' W 124°55'0 0.0
2017-Jan-14 08:29N 49°44' W 124°55'0 0.0
2017-Jan-14 07:32N 49°44' W 124°55'0 0.0
2017-Jan-14 06:32N 49°44' W 124°55'5 5.5
2017-Jan-14 05:33N 49°47' W 124°48'1110.9
2017-Jan-14 04:33N 49°50' W 124°32'1313.2
2017-Jan-14 03:33N 49°46' W 124°51'1 0.4
2017-Jan-13 23:33N 49°45' W 124°53'1 1.3
2017-Jan-13 22:25N 49°44' W 124°55'0 0.0
2017-Jan-13 21:28N 49°44' W 124°55'910.0
2017-Jan-13 20:34N 49°48' W 124°42'7 7.1
2017-Jan-13 19:33N 49°50' W 124°32'1110.7
2017-Jan-13 18:33N 49°46' W 124°48'5 5.5
2017-Jan-13 17:33N 49°44' W 124°55'1514.9
2017-Jan-13 16:34N 49°50' W 124°34'6 5.8
2017-Jan-13 15:34N 49°48' W 124°42'9 9.1
2017-Jan-13 14:33N 49°44' W 124°55'0 0.0
2017-Jan-13 13:31N 49°44' W 124°55'0 0.0
2017-Jan-13 12:31N 49°44' W 124°55'0 0.0
2017-Jan-13 11:25N 49°44' W 124°55'0 0.0
2017-Jan-13 10:31N 49°44' W 124°55'0 0.0
2017-Jan-13 09:31N 49°44' W 124°55'0 0.0
2017-Jan-13 08:31N 49°44' W 124°55'0 0.0
2017-Jan-13 07:31N 49°44' W 124°55'0 0.0
2017-Jan-13 06:31N 49°44' W 124°55'6 6.0
2017-Jan-13 05:34N 49°47' W 124°47'1010.3
2017-Jan-13 04:33N 49°50' W 124°32'1312.8
2017-Jan-13 03:33N 49°46' W 124°50'4 3.5
2017-Jan-13 02:33N 49°44' W 124°55'1211.6
2017-Jan-13 01:34N 49°48' W 124°39'4 4.0
2017-Jan-13 00:33N 49°50' W 124°33'1312.4
2017-Jan-12 23:33N 49°46' W 124°51'3 3.0
2017-Jan-12 22:33N 49°44' W 124°55'0 0.0
2017-Jan-12 21:33N 49°44' W 124°55'8 8.0
2017-Jan-12 20:33N 49°47' W 124°44'8 8.3
2017-Jan-12 19:33N 49°50' W 124°32'1110.7
2017-Jan-12 18:33N 49°46' W 124°47'5 5.5
2017-Jan-12 17:33N 49°44' W 124°55'1111.1
2017-Jan-12 16:33N 49°48' W 124°39'4 4.2
2017-Jan-12 15:34N 49°50' W 124°34'1413.5
2017-Jan-12 14:33N 49°45' W 124°53'2 0.3
2017-Jan-12 09:32N 49°44' W 124°55'0 0.0
2017-Jan-12 08:29N 49°44' W 124°55'0 0.0
2017-Jan-12 06:08N 49°44' W 124°55'5 8.8
2017-Jan-12 05:33N 49°46' W 124°48'1111.2
2017-Jan-12 04:33N 49°50' W 124°32'9 9.0
2017-Jan-12 03:33N 49°47' W 124°45'7 6.9
2017-Jan-12 02:31N 49°44' W 124°55'0 0.0
2017-Jan-12 01:31N 49°44' W 124°55'0 0.0
2017-Jan-12 00:16N 49°44' W 124°55'0 0.0
2017-Jan-11 23:31N 49°44' W 124°55'0 0.0
2017-Jan-11 22:31N 49°44' W 124°55'0 0.0
2017-Jan-11 21:33N 49°44' W 124°55'8 7.8
2017-Jan-11 20:33N 49°47' W 124°44'8 8.5
2017-Jan-11 19:34N 49°50' W 124°32'1010.3
2017-Jan-11 18:33N 49°46' W 124°47'6 5.9
2017-Jan-11 17:33N 49°44' W 124°55'1010.1
2017-Jan-11 16:34N 49°48' W 124°41'5 4.8
2017-Jan-11 15:33N 49°50' W 124°34'1313.1
2017-Jan-11 14:33N 49°45' W 124°53'2 1.6
2017-Jan-11 13:29N 49°44' W 124°55'0 0.0
2017-Jan-11 12:29N 49°44' W 124°55'0 0.0
2017-Jan-11 11:29N 49°44' W 124°55'0 0.0
2017-Jan-11 10:32N 49°44' W 124°55'0 0.0
2017-Jan-11 09:32N 49°44' W 124°55'0 0.0
2017-Jan-11 08:32N 49°44' W 124°55'0 0.0
2017-Jan-11 07:32N 49°44' W 124°55'0 0.0
2017-Jan-11 06:32N 49°44' W 124°55'5 5.4
2017-Jan-11 05:33N 49°47' W 124°48'1111.0
2017-Jan-11 04:34N 49°50' W 124°32'1413.3
2017-Jan-11 03:33N 49°45' W 124°52'3 2.7
2017-Jan-11 02:33N 49°44' W 124°55'1212.2
2017-Jan-11 01:33N 49°49' W 124°38'3 3.0
2017-Jan-11 00:33N 49°50' W 124°34'1312.7
2017-Jan-10 23:33N 49°45' W 124°52'3 1.2
2017-Jan-10 21:27N 49°44' W 124°55'7 8.0
2017-Jan-10 20:33N 49°47' W 124°45'9 9.0
2017-Jan-10 19:33N 49°50' W 124°32'10 9.8
2017-Jan-10 18:33N 49°46' W 124°46'6 6.5
2017-Jan-10 17:34N 49°44' W 124°55'1111.2
2017-Jan-10 16:33N 49°48' W 124°39'3 3.2
2017-Jan-10 15:33N 49°50' W 124°35'1414.2
2017-Jan-10 14:33N 49°45' W 124°55'0 0.3
2017-Jan-10 13:32N 49°44' W 124°55'0 0.0
2017-Jan-10 12:32N 49°44' W 124°55'0 0.0
2017-Jan-10 11:32N 49°44' W 124°55'0 0.0
2017-Jan-10 10:32N 49°44' W 124°55'0 0.0
2017-Jan-10 09:32N 49°44' W 124°55'0 0.0
2017-Jan-10 08:32N 49°44' W 124°55'0 0.0
2017-Jan-10 07:32N 49°44' W 124°55'0 0.0
2017-Jan-10 06:20N 49°44' W 124°55'6 7.3
2017-Jan-10 05:33N 49°47' W 124°47'1110.6
2017-Jan-10 04:33N 49°50' W 124°32'1413.4
2017-Jan-10 03:32N 49°45' W 124°52'3 2.6
2017-Jan-10 02:33N 49°44' W 124°55'1212.4
2017-Jan-10 01:33N 49°49' W 124°38'3 3.0
2017-Jan-10 00:33N 49°50' W 124°33'1313.1
2017-Jan-09 23:33N 49°45' W 124°52'2 2.1
2017-Jan-09 22:33N 49°44' W 124°55'0 0.0
2017-Jan-09 21:31N 49°44' W 124°55'7 7.4
2017-Jan-09 20:33N 49°47' W 124°45'9 9.2
2017-Jan-09 19:33N 49°50' W 124°32'10 9.6
2017-Jan-09 18:33N 49°46' W 124°46'6 6.6
2017-Jan-09 17:33N 49°44' W 124°55'1010.3
2017-Jan-09 16:33N 49°48' W 124°40'5 5.2
2017-Jan-09 15:33N 49°50' W 124°33'1414.0
2017-Jan-09 14:33N 49°45' W 124°53'2 1.5
2017-Jan-09 13:33N 49°44' W 124°55'0 0.0
2017-Jan-09 12:33N 49°44' W 124°55'0 0.0
2017-Jan-09 11:33N 49°44' W 124°55'0 0.0
2017-Jan-09 06:21N 49°44' W 124°55'6 7.1
2017-Jan-09 05:34N 49°47' W 124°47'1110.5
2017-Jan-09 04:33N 49°50' W 124°32'1413.7
2017-Jan-09 03:33N 49°45' W 124°52'2 2.4
2017-Jan-09 02:32N 49°44' W 124°55'1212.7
2017-Jan-09 01:33N 49°49' W 124°38'3 3.3
2017-Jan-09 00:33N 49°50' W 124°33'1413.8
2017-Jan-08 23:33N 49°45' W 124°53'2 1.8
2017-Jan-08 22:33N 49°44' W 124°55'0 0.0
2017-Jan-08 21:11N 49°44' W 124°55'711.3
2017-Jan-08 20:33N 49°47' W 124°45'9 9.1
2017-Jan-08 19:33N 49°50' W 124°32'9 9.5
2017-Jan-08 18:33N 49°47' W 124°46'7 6.5
2017-Jan-08 17:31N 49°44' W 124°55'1111.2
2017-Jan-08 16:33N 49°48' W 124°40'5 4.7
2017-Jan-08 15:33N 49°50' W 124°33'1313.2
2017-Jan-08 14:33N 49°45' W 124°52'2 2.1
2017-Jan-08 13:31N 49°44' W 124°55'0 0.0
2017-Jan-08 12:31N 49°44' W 124°55'0 0.0
2017-Jan-08 11:31N 49°44' W 124°55'0 0.0
2017-Jan-08 10:16N 49°44' W 124°55'0 0.0
2017-Jan-08 09:31N 49°44' W 124°55'0 0.0
2017-Jan-08 08:31N 49°44' W 124°55'5 1.8
2017-Jan-08 05:33N 49°46' W 124°48'1111.0
2017-Jan-08 04:33N 49°50' W 124°32'9 8.5
2017-Jan-08 03:33N 49°47' W 124°44'8 7.7
2017-Jan-08 02:33N 49°44' W 124°55'0 0.0
2017-Jan-08 01:32N 49°44' W 124°55'0 0.0
2017-Jan-07 21:17N 49°44' W 124°55'7 9.9
2017-Jan-07 20:33N 49°47' W 124°45'  
Track history (hours):
 
Tides and Currents Weather Stations Pressure Air Temp Water Temp Dewpoint Dewpoint Depression Visibility Wind Speed Wind Dir Waves Ship Positions

Queen Of Burnaby

Last reported at 2017-Jan-17 20:27 UTC. Time now 2017-Jan-17 21:24 UTC.
Position N 49°44' W 124°55'.

Length 130 m; draft 4 m.

MMSI: 316001246.

Date/timePositionNaut miles runAvg speedWind from/ knotsBaromVisibWave heightAir tempDewpointWater temp
2017-Jan-17 20:27N 49°44' W 124°55'0 0.0
2017-Jan-17 19:24N 49°44' W 124°55'0 0.0
2017-Jan-17 18:33N 49°44' W 124°55'0 0.0
2017-Jan-17 17:27N 49°44' W 124°55'0 0.0
2017-Jan-17 16:33N 49°44' W 124°55'0 0.0
2017-Jan-17 15:30N 49°44' W 124°55'0 0.0
2017-Jan-17 14:30N 49°44' W 124°55'0 0.0
2017-Jan-17 13:30N 49°44' W 124°55'0 0.0
2017-Jan-17 12:30N 49°44' W 124°55'0 0.0
2017-Jan-17 11:33N 49°44' W 124°55'0 0.0
2017-Jan-17 10:33N 49°44' W 124°55'0 0.0
2017-Jan-17 09:30N 49°44' W 124°55'0 0.0
2017-Jan-17 07:30N 49°44' W 124°55'0 0.0
2017-Jan-17 06:33N 49°44' W 124°55'9 9.4
2017-Jan-17 05:33N 49°44' W 124°41'9 8.6
2017-Jan-17 04:33N 49°50' W 124°32'1413.8
2017-Jan-17 03:33N 49°45' W 124°52'1 1.1
2017-Jan-17 02:33N 49°44' W 124°51'1010.0
2017-Jan-17 01:33N 49°49' W 124°37'3 3.0
2017-Jan-17 00:33N 49°50' W 124°33'1212.4
2017-Jan-16 23:33N 49°46' W 124°51'3 2.8
2017-Jan-16 22:27N 49°44' W 124°55'0 0.0
2017-Jan-16 21:33N 49°44' W 124°55'7 7.2
2017-Jan-16 20:33N 49°47' W 124°45'9 9.1
2017-Jan-16 19:33N 49°50' W 124°32'10 9.9
2017-Jan-16 18:33N 49°47' W 124°46'6 6.3
2017-Jan-16 17:33N 49°44' W 124°55'1111.5
2017-Jan-16 16:33N 49°48' W 124°39'3 3.5
2017-Jan-16 15:33N 49°50' W 124°34'1413.6
2017-Jan-16 14:33N 49°45' W 124°54'1 1.3
2017-Jan-16 13:32N 49°44' W 124°55'0 0.0
2017-Jan-16 12:32N 49°44' W 124°55'0 0.0
2017-Jan-16 11:32N 49°44' W 124°55'0 0.0
2017-Jan-16 10:32N 49°44' W 124°55'0 0.0
2017-Jan-16 09:32N 49°44' W 124°55'0 0.0
2017-Jan-16 08:32N 49°44' W 124°55'0 0.0
2017-Jan-16 07:32N 49°44' W 124°55'0 0.0
2017-Jan-16 06:32N 49°44' W 124°55'6 6.2
2017-Jan-16 05:33N 49°47' W 124°47'1010.2
2017-Jan-16 04:33N 49°50' W 124°32'1413.8
2017-Jan-16 03:33N 49°45' W 124°52'2 2.5
2017-Jan-16 02:33N 49°44' W 124°55'1212.3
2017-Jan-16 01:33N 49°49' W 124°38'4 3.6
2017-Jan-16 00:33N 49°50' W 124°32'1312.8
2017-Jan-15 23:33N 49°46' W 124°51'3 3.0
2017-Jan-15 22:33N 49°44' W 124°55'0 0.0
2017-Jan-15 21:28N 49°44' W 124°55'8 8.8
2017-Jan-15 20:33N 49°47' W 124°44'8 8.1
2017-Jan-15 19:33N 49°50' W 124°32'10 9.7
2017-Jan-15 18:33N 49°47' W 124°46'7 6.5
2017-Jan-15 17:33N 49°44' W 124°55'1110.8
2017-Jan-15 16:33N 49°48' W 124°40'5 4.6
2017-Jan-15 15:33N 49°50' W 124°34'1313.5
2017-Jan-15 14:34N 49°45' W 124°53'2 1.6
2017-Jan-15 13:24N 49°44' W 124°55'0 0.0
2017-Jan-15 10:12N 49°44' W 124°55'0 0.0
2017-Jan-15 08:15N 49°44' W 124°55'0 0.0
2017-Jan-15 07:33N 49°44' W 124°55'0 0.0
2017-Jan-15 06:21N 49°44' W 124°55'5 6.4
2017-Jan-15 05:33N 49°46' W 124°48'1111.2
2017-Jan-15 04:33N 49°50' W 124°32'9 9.2
2017-Jan-15 03:33N 49°47' W 124°45'7 7.1
2017-Jan-15 02:33N 49°44' W 124°55'0 0.0
2017-Jan-15 01:33N 49°44' W 124°55'0 0.0
2017-Jan-15 00:33N 49°44' W 124°55'1 1.4
2017-Jan-14 23:34N 49°45' W 124°53'1 1.3
2017-Jan-14 22:32N 49°44' W 124°55'0 0.0
2017-Jan-14 21:32N 49°44' W 124°55'8 8.1
2017-Jan-14 20:33N 49°47' W 124°44'8 8.3
2017-Jan-14 19:33N 49°50' W 124°32'1010.3
2017-Jan-14 18:33N 49°46' W 124°47'6 5.9
2017-Jan-14 17:33N 49°44' W 124°55'1110.9
2017-Jan-14 16:33N 49°48' W 124°40'4 3.8
2017-Jan-14 15:34N 49°50' W 124°35'1413.7
2017-Jan-14 14:33N 49°45' W 124°54'1 0.9
2017-Jan-14 13:32N 49°44' W 124°55'0 0.0
2017-Jan-14 12:26N 49°44' W 124°55'0 0.0
2017-Jan-14 11:29N 49°44' W 124°55'0 0.0
2017-Jan-14 10:32N 49°44' W 124°55'0 0.0
2017-Jan-14 09:29N 49°44' W 124°55'0 0.0
2017-Jan-14 08:29N 49°44' W 124°55'0 0.0
2017-Jan-14 07:32N 49°44' W 124°55'0 0.0
2017-Jan-14 06:32N 49°44' W 124°55'5 5.5
2017-Jan-14 05:33N 49°47' W 124°48'1110.9
2017-Jan-14 04:33N 49°50' W 124°32'1313.2
2017-Jan-14 03:33N 49°46' W 124°51'1 0.4
2017-Jan-13 23:33N 49°45' W 124°53'1 1.3
2017-Jan-13 22:25N 49°44' W 124°55'0 0.0
2017-Jan-13 21:28N 49°44' W 124°55'910.0
2017-Jan-13 20:34N 49°48' W 124°42'7 7.1
2017-Jan-13 19:33N 49°50' W 124°32'1110.7
2017-Jan-13 18:33N 49°46' W 124°48'5 5.5
2017-Jan-13 17:33N 49°44' W 124°55'1514.9
2017-Jan-13 16:34N 49°50' W 124°34'6 5.8
2017-Jan-13 15:34N 49°48' W 124°42'9 9.1
2017-Jan-13 14:33N 49°44' W 124°55'0 0.0
2017-Jan-13 13:31N 49°44' W 124°55'0 0.0
2017-Jan-13 12:31N 49°44' W 124°55'0 0.0
2017-Jan-13 11:25N 49°44' W 124°55'0 0.0
2017-Jan-13 10:31N 49°44' W 124°55'0 0.0
2017-Jan-13 09:31N 49°44' W 124°55'0 0.0
2017-Jan-13 08:31N 49°44' W 124°55'0 0.0
2017-Jan-13 07:31N 49°44' W 124°55'0 0.0
2017-Jan-13 06:31N 49°44' W 124°55'6 6.0
2017-Jan-13 05:34N 49°47' W 124°47'1010.3
2017-Jan-13 04:33N 49°50' W 124°32'1312.8
2017-Jan-13 03:33N 49°46' W 124°50'4 3.5
2017-Jan-13 02:33N 49°44' W 124°55'1211.6
2017-Jan-13 01:34N 49°48' W 124°39'4 4.0
2017-Jan-13 00:33N 49°50' W 124°33'1312.4
2017-Jan-12 23:33N 49°46' W 124°51'3 3.0
2017-Jan-12 22:33N 49°44' W 124°55'0 0.0
2017-Jan-12 21:33N 49°44' W 124°55'8 8.0
2017-Jan-12 20:33N 49°47' W 124°44'8 8.3
2017-Jan-12 19:33N 49°50' W 124°32'1110.7
2017-Jan-12 18:33N 49°46' W 124°47'5 5.5
2017-Jan-12 17:33N 49°44' W 124°55'1111.1
2017-Jan-12 16:33N 49°48' W 124°39'4 4.2
2017-Jan-12 15:34N 49°50' W 124°34'1413.5
2017-Jan-12 14:33N 49°45' W 124°53'2 0.3
2017-Jan-12 09:32N 49°44' W 124°55'0 0.0
2017-Jan-12 08:29N 49°44' W 124°55'0 0.0
2017-Jan-12 06:08N 49°44' W 124°55'5 8.8
2017-Jan-12 05:33N 49°46' W 124°48'1111.2
2017-Jan-12 04:33N 49°50' W 124°32'9 9.0
2017-Jan-12 03:33N 49°47' W 124°45'7 6.9
2017-Jan-12 02:31N 49°44' W 124°55'0 0.0
2017-Jan-12 01:31N 49°44' W 124°55'0 0.0
2017-Jan-12 00:16N 49°44' W 124°55'0 0.0
2017-Jan-11 23:31N 49°44' W 124°55'0 0.0
2017-Jan-11 22:31N 49°44' W 124°55'0 0.0
2017-Jan-11 21:33N 49°44' W 124°55'8 7.8
2017-Jan-11 20:33N 49°47' W 124°44'8 8.5
2017-Jan-11 19:34N 49°50' W 124°32'1010.3
2017-Jan-11 18:33N 49°46' W 124°47'6 5.9
2017-Jan-11 17:33N 49°44' W 124°55'1010.1
2017-Jan-11 16:34N 49°48' W 124°41'5 4.8
2017-Jan-11 15:33N 49°50' W 124°34'1313.1
2017-Jan-11 14:33N 49°45' W 124°53'2 1.6
2017-Jan-11 13:29N 49°44' W 124°55'0 0.0
2017-Jan-11 12:29N 49°44' W 124°55'0 0.0
2017-Jan-11 11:29N 49°44' W 124°55'0 0.0
2017-Jan-11 10:32N 49°44' W 124°55'0 0.0
2017-Jan-11 09:32N 49°44' W 124°55'0 0.0
2017-Jan-11 08:32N 49°44' W 124°55'0 0.0
2017-Jan-11 07:32N 49°44' W 124°55'0 0.0
2017-Jan-11 06:32N 49°44' W 124°55'5 5.4
2017-Jan-11 05:33N 49°47' W 124°48'1111.0
2017-Jan-11 04:34N 49°50' W 124°32'1413.3
2017-Jan-11 03:33N 49°45' W 124°52'3 2.7
2017-Jan-11 02:33N 49°44' W 124°55'1212.2
2017-Jan-11 01:33N 49°49' W 124°38'3 3.0
2017-Jan-11 00:33N 49°50' W 124°34'1312.7
2017-Jan-10 23:33N 49°45' W 124°52'3 1.2
2017-Jan-10 21:27N 49°44' W 124°55'7 8.0
2017-Jan-10 20:33N 49°47' W 124°45'9 9.0
2017-Jan-10 19:33N 49°50' W 124°32'10 9.8
2017-Jan-10 18:33N 49°46' W 124°46'6 6.5
2017-Jan-10 17:34N 49°44' W 124°55'1111.2
2017-Jan-10 16:33N 49°48' W 124°39'3 3.2
2017-Jan-10 15:33N 49°50' W 124°35'1414.2
2017-Jan-10 14:33N 49°45' W 124°55'0 0.3
2017-Jan-10 13:32N 49°44' W 124°55'0 0.0
2017-Jan-10 12:32N 49°44' W 124°55'0 0.0
2017-Jan-10 11:32N 49°44' W 124°55'0 0.0
2017-Jan-10 10:32N 49°44' W 124°55'0 0.0
2017-Jan-10 09:32N 49°44' W 124°55'0 0.0
2017-Jan-10 08:32N 49°44' W 124°55'0 0.0
2017-Jan-10 07:32N 49°44' W 124°55'0 0.0
2017-Jan-10 06:20N 49°44' W 124°55'6 7.3
2017-Jan-10 05:33N 49°47' W 124°47'1110.6
2017-Jan-10 04:33N 49°50' W 124°32'1413.4
2017-Jan-10 03:32N 49°45' W 124°52'3 2.6
2017-Jan-10 02:33N 49°44' W 124°55'1212.4
2017-Jan-10 01:33N 49°49' W 124°38'3 3.0
2017-Jan-10 00:33N 49°50' W 124°33'1313.1
2017-Jan-09 23:33N 49°45' W 124°52'2 2.1
2017-Jan-09 22:33N 49°44' W 124°55'0 0.0
2017-Jan-09 21:31N 49°44' W 124°55'7 7.4
2017-Jan-09 20:33N 49°47' W 124°45'9 9.2
2017-Jan-09 19:33N 49°50' W 124°32'10 9.6
2017-Jan-09 18:33N 49°46' W 124°46'6 6.6
2017-Jan-09 17:33N 49°44' W 124°55'1010.3
2017-Jan-09 16:33N 49°48' W 124°40'5 5.2
2017-Jan-09 15:33N 49°50' W 124°33'1414.0
2017-Jan-09 14:33N 49°45' W 124°53'2 1.5
2017-Jan-09 13:33N 49°44' W 124°55'0 0.0
2017-Jan-09 12:33N 49°44' W 124°55'0 0.0
2017-Jan-09 11:33N 49°44' W 124°55'0 0.0
2017-Jan-09 06:21N 49°44' W 124°55'6 7.1
2017-Jan-09 05:34N 49°47' W 124°47'1110.5
2017-Jan-09 04:33N 49°50' W 124°32'1413.7
2017-Jan-09 03:33N 49°45' W 124°52'2 2.4
2017-Jan-09 02:32N 49°44' W 124°55'1212.7
2017-Jan-09 01:33N 49°49' W 124°38'3 3.3
2017-Jan-09 00:33N 49°50' W 124°33'1413.8
2017-Jan-08 23:33N 49°45' W 124°53'2 1.8
2017-Jan-08 22:33N 49°44' W 124°55'0 0.0
2017-Jan-08 21:11N 49°44' W 124°55'711.3
2017-Jan-08 20:33N 49°47' W 124°45'9 9.1
2017-Jan-08 19:33N 49°50' W 124°32'9 9.5
2017-Jan-08 18:33N 49°47' W 124°46'7 6.5
2017-Jan-08 17:31N 49°44' W 124°55'1111.2
2017-Jan-08 16:33N 49°48' W 124°40'5 4.7
2017-Jan-08 15:33N 49°50' W 124°33'1313.2
2017-Jan-08 14:33N 49°45' W 124°52'2 2.1
2017-Jan-08 13:31N 49°44' W 124°55'0 0.0
2017-Jan-08 12:31N 49°44' W 124°55'0 0.0
2017-Jan-08 11:31N 49°44' W 124°55'0 0.0
2017-Jan-08 10:16N 49°44' W 124°55'0 0.0
2017-Jan-08 09:31N 49°44' W 124°55'0 0.0
2017-Jan-08 08:31N 49°44' W 124°55'5 1.8
2017-Jan-08 05:33N 49°46' W 124°48'1111.0
2017-Jan-08 04:33N 49°50' W 124°32'9 8.5
2017-Jan-08 03:33N 49°47' W 124°44'8 7.7
2017-Jan-08 02:33N 49°44' W 124°55'0 0.0
2017-Jan-08 01:32N 49°44' W 124°55'0 0.0
2017-Jan-07 21:17N 49°44' W 124°55'7 9.9
2017-Jan-07 20:33N 49°47' W 124°45'  

Dump ship's entire track history